createdAt,value
2023-09-29T00:00:31.086Z,6.30
2023-09-29T00:02:59.853Z,7.97
2023-09-29T00:05:28.605Z,8.55
2023-09-29T00:07:59.503Z,7.57
2023-09-29T00:10:26.911Z,6.53
2023-09-29T00:12:54.277Z,8.15
2023-09-29T00:15:23.481Z,10.65
2023-09-29T00:17:50.789Z,6.07
2023-09-29T00:20:25.242Z,6.47
2023-09-29T00:22:57.895Z,4.65
2023-09-29T00:25:25.970Z,5.30
2023-09-29T00:27:54.502Z,6.78
2023-09-29T00:30:22.155Z,8.63
2023-09-29T00:32:54.365Z,6.68
2023-09-29T00:35:26.487Z,6.63
2023-09-29T00:37:58.365Z,7.57
2023-09-29T00:40:25.539Z,6.53
2023-09-29T00:42:54.188Z,4.85
2023-09-29T00:45:25.244Z,7.45
2023-09-29T00:48:07.660Z,4.82
2023-09-29T00:50:35.938Z,7.72
2023-09-29T00:53:13.221Z,5.78
2023-09-29T00:55:44.015Z,5.40
2023-09-29T00:58:14.199Z,6.35
2023-09-29T01:00:43.158Z,7.18
2023-09-29T01:03:14.437Z,6.65
2023-09-29T01:05:53.162Z,5.53
2023-09-29T01:08:22.536Z,5.15
2023-09-29T01:10:50.711Z,6.78
2023-09-29T01:13:18.126Z,6.65
2023-09-29T01:15:45.852Z,7.80
2023-09-29T01:18:13.285Z,6.32
2023-09-29T01:20:42.588Z,6.18
2023-09-29T01:23:10.356Z,7.45
2023-09-29T01:25:39.013Z,5.50
2023-09-29T01:28:11.937Z,7.10
2023-09-29T01:30:39.514Z,6.90
2023-09-29T01:33:07.169Z,6.70
2023-09-29T01:35:34.528Z,8.80
2023-09-29T01:38:02.177Z,5.72
2023-09-29T01:40:30.478Z,6.40
2023-09-29T01:42:58.924Z,5.18
2023-09-29T01:45:27.502Z,5.82
2023-09-29T01:47:56.172Z,6.00
2023-09-29T01:50:25.213Z,5.78
2023-09-29T01:52:53.770Z,9.07
2023-09-29T01:55:22.562Z,8.70
2023-09-29T01:57:51.844Z,6.13
2023-09-29T02:00:27.110Z,7.28
2023-09-29T02:02:56.188Z,6.50
2023-09-29T02:05:24.810Z,4.53
2023-09-29T02:07:54.546Z,7.30
2023-09-29T02:10:23.627Z,4.95
2023-09-29T02:13:00.364Z,6.97
2023-09-29T02:15:31.174Z,5.90
2023-09-29T02:17:59.979Z,5.65
2023-09-29T02:20:31.193Z,5.63
2023-09-29T02:23:03.732Z,6.78
2023-09-29T02:25:34.177Z,8.07
2023-09-29T02:28:01.804Z,7.40
2023-09-29T02:30:30.261Z,9.68
2023-09-29T02:33:00.056Z,7.38
2023-09-29T02:35:27.200Z,5.72
2023-09-29T02:37:54.638Z,6.20
2023-09-29T02:40:23.934Z,4.80
2023-09-29T02:42:51.619Z,6.65
2023-09-29T02:45:19.940Z,6.55
2023-09-29T02:47:49.309Z,7.20
2023-09-29T02:50:17.403Z,7.22
2023-09-29T02:52:44.658Z,7.53
2023-09-29T02:55:14.351Z,9.07
2023-09-29T02:57:43.186Z,7.18
2023-09-29T03:00:23.326Z,6.35
2023-09-29T03:02:52.835Z,7.18
2023-09-29T03:05:23.959Z,6.60
2023-09-29T03:07:55.093Z,5.45
2023-09-29T03:10:27.340Z,5.82
2023-09-29T03:12:56.493Z,7.10
2023-09-29T03:15:25.124Z,7.95
2023-09-29T03:17:57.732Z,4.93
2023-09-29T03:20:27.438Z,7.53
2023-09-29T03:22:58.906Z,5.97
2023-09-29T03:25:26.026Z,7.82
2023-09-29T03:27:54.626Z,6.47
2023-09-29T03:30:23.324Z,5.72
2023-09-29T03:32:50.628Z,8.00
2023-09-29T03:35:17.691Z,10.23
2023-09-29T03:37:47.041Z,6.90
2023-09-29T03:40:15.015Z,8.75
2023-09-29T03:42:43.878Z,7.18
2023-09-29T03:45:14.008Z,7.97
2023-09-29T03:47:41.950Z,7.18
2023-09-29T03:50:14.261Z,7.57
2023-09-29T03:55:14.028Z,6.40
2023-09-29T03:57:44.530Z,7.15
2023-09-29T04:00:13.998Z,10.00
2023-09-29T04:02:45.050Z,7.88
2023-09-29T04:05:13.259Z,6.28
2023-09-29T04:07:41.742Z,7.90
2023-09-29T04:10:11.254Z,8.05
2023-09-29T04:12:46.316Z,6.05
2023-09-29T04:15:15.114Z,6.10
2023-09-29T04:17:42.534Z,7.53
2023-09-29T04:20:11.093Z,6.55
2023-09-29T04:22:38.619Z,7.03
2023-09-29T04:25:10.861Z,6.25
2023-09-29T04:27:38.833Z,6.22
2023-09-29T04:30:07.984Z,8.73
2023-09-29T04:32:35.441Z,7.75
2023-09-29T04:35:02.760Z,8.88
2023-09-29T04:37:30.569Z,8.32
2023-09-29T04:39:58.529Z,7.72
2023-09-29T04:42:26.069Z,9.50
2023-09-29T04:44:53.330Z,8.18
2023-09-29T04:47:21.422Z,11.88
2023-09-29T04:49:48.630Z,8.02
2023-09-29T04:52:15.881Z,8.07
2023-09-29T04:54:43.656Z,7.35
2023-09-29T04:57:10.938Z,7.35
2023-09-29T04:59:38.259Z,7.28
2023-09-29T05:02:07.139Z,8.43
2023-09-29T05:04:36.291Z,8.23
2023-09-29T05:07:03.334Z,6.90
2023-09-29T05:09:30.474Z,8.63
2023-09-29T05:11:57.486Z,6.13
2023-09-29T05:14:25.568Z,7.40
2023-09-29T05:16:54.911Z,8.02
2023-09-29T05:19:22.541Z,8.35
2023-09-29T05:21:49.562Z,7.40
2023-09-29T05:24:18.281Z,8.10
2023-09-29T05:26:47.143Z,7.07
2023-09-29T05:29:14.445Z,9.27
2023-09-29T05:31:41.879Z,5.85
2023-09-29T05:34:09.223Z,6.70
2023-09-29T05:36:37.846Z,5.15
2023-09-29T05:39:05.725Z,6.13
2023-09-29T05:41:33.127Z,8.38
2023-09-29T05:44:00.413Z,8.93
2023-09-29T05:46:28.243Z,7.97
2023-09-29T05:48:55.907Z,8.10
2023-09-29T05:51:23.085Z,14.02
2023-09-29T05:53:51.946Z,13.10
2023-09-29T05:56:20.163Z,12.98
2023-09-29T05:58:47.111Z,7.88
2023-09-29T06:01:17.889Z,6.78
2023-09-29T06:03:46.726Z,10.07
2023-09-29T06:06:14.075Z,9.80
2023-09-29T06:08:54.654Z,13.75
2023-09-29T06:11:23.367Z,12.32
2023-09-29T06:13:50.624Z,9.63
2023-09-29T06:16:17.888Z,8.43
2023-09-29T06:18:45.160Z,9.38
2023-09-29T06:21:12.652Z,9.73
2023-09-29T06:23:41.415Z,6.70
2023-09-29T06:26:09.248Z,8.82
2023-09-29T06:28:36.473Z,12.88
2023-09-29T06:31:04.179Z,15.85
2023-09-29T06:33:33.681Z,12.07
2023-09-29T06:36:02.144Z,10.90
2023-09-29T06:38:30.890Z,9.23
2023-09-29T06:41:01.227Z,9.43
2023-09-29T06:43:28.523Z,8.30
2023-09-29T06:46:01.832Z,9.07
2023-09-29T06:48:30.140Z,6.78
2023-09-29T06:51:02.060Z,6.28
2023-09-29T06:53:30.140Z,6.78
2023-09-29T06:55:59.516Z,5.60
2023-09-29T06:58:29.370Z,6.63
2023-09-29T07:01:01.011Z,6.88
2023-09-29T07:06:01.360Z,5.95
2023-09-29T07:08:29.532Z,7.93
2023-09-29T07:10:57.271Z,9.85
2023-09-29T07:13:25.474Z,6.55
2023-09-29T07:15:52.444Z,10.25
2023-09-29T07:18:20.028Z,8.05
2023-09-29T07:20:47.144Z,8.20
2023-09-29T07:23:14.940Z,8.57
2023-09-29T07:25:42.406Z,7.07
2023-09-29T07:28:14.857Z,9.18
2023-09-29T07:30:45.981Z,7.68
2023-09-29T07:33:13.916Z,6.10
2023-09-29T07:35:43.237Z,5.53
2023-09-29T07:38:10.318Z,7.63
2023-09-29T07:40:37.550Z,8.27
2023-09-29T07:43:08.261Z,6.90
2023-09-29T07:45:35.818Z,9.77
2023-09-29T07:48:02.997Z,7.35
2023-09-29T07:50:30.163Z,8.85
2023-09-29T07:52:57.366Z,6.18
2023-09-29T07:55:24.864Z,9.13
2023-09-29T07:57:52.944Z,5.38
2023-09-29T08:00:20.976Z,7.57
2023-09-29T08:02:48.216Z,8.45
2023-09-29T08:05:15.966Z,7.55
2023-09-29T08:07:42.978Z,6.72
2023-09-29T08:10:13.533Z,5.68
2023-09-29T08:12:40.725Z,5.97
2023-09-29T08:15:10.779Z,6.45
2023-09-29T08:17:39.316Z,8.38
2023-09-29T08:20:09.790Z,8.70
2023-09-29T08:22:41.199Z,7.88
2023-09-29T08:25:12.412Z,4.85
2023-09-29T08:27:40.162Z,7.93
2023-09-29T08:30:10.799Z,5.43
2023-09-29T08:32:45.114Z,6.20
2023-09-29T08:35:15.541Z,8.50
2023-09-29T08:37:45.020Z,4.85
2023-09-29T08:40:16.047Z,5.82
2023-09-29T08:42:47.471Z,6.13
2023-09-29T08:45:14.910Z,7.35
2023-09-29T08:47:42.604Z,5.57
2023-09-29T08:50:11.826Z,5.80
2023-09-29T08:52:42.302Z,6.43
2023-09-29T08:55:10.050Z,6.18
2023-09-29T08:57:38.226Z,10.00
2023-09-29T09:00:07.371Z,9.25
2023-09-29T09:02:34.970Z,5.72
2023-09-29T09:05:02.282Z,5.15
2023-09-29T09:07:29.568Z,33.97
2023-09-29T09:09:58.729Z,16.95
2023-09-29T09:12:38.172Z,12.30
2023-09-29T09:15:07.911Z,7.40
2023-09-29T09:17:37.186Z,8.32
2023-09-29T09:20:05.281Z,6.03
2023-09-29T09:22:46.268Z,6.50
2023-09-29T09:25:15.644Z,6.35
2023-09-29T09:27:45.303Z,5.88
2023-09-29T09:30:24.914Z,6.47
2023-09-29T09:32:52.879Z,5.63
2023-09-29T09:35:28.677Z,6.40
2023-09-29T09:37:57.285Z,6.00
2023-09-29T09:40:26.345Z,8.48
2023-09-29T09:42:55.492Z,5.63
2023-09-29T09:45:26.771Z,7.13
2023-09-29T09:48:01.363Z,5.60
2023-09-29T09:50:30.242Z,8.40
2023-09-29T09:53:01.294Z,10.90
2023-09-29T09:55:43.478Z,5.15
2023-09-29T09:58:16.770Z,9.73
2023-09-29T10:00:47.230Z,6.70
2023-09-29T10:03:18.389Z,8.23
2023-09-29T10:05:55.118Z,7.07
2023-09-29T10:08:33.099Z,7.13
2023-09-29T10:11:17.056Z,7.07
2023-09-29T10:13:53.497Z,8.93
2023-09-29T10:16:27.198Z,12.57
2023-09-29T10:19:01.872Z,5.90
2023-09-29T10:21:35.490Z,8.35
2023-09-29T10:24:08.098Z,8.45
2023-09-29T10:26:50.123Z,5.78
2023-09-29T10:29:25.966Z,6.38
2023-09-29T10:31:54.375Z,8.73
2023-09-29T10:34:25.887Z,10.73
2023-09-29T10:36:58.919Z,9.10
2023-09-29T10:39:27.660Z,9.45
2023-09-29T10:42:14.156Z,7.45
2023-09-29T10:44:56.815Z,9.45
2023-09-29T10:47:37.854Z,7.97
2023-09-29T10:50:06.875Z,9.88
2023-09-29T10:52:37.823Z,5.95
2023-09-29T10:55:06.129Z,7.80
2023-09-29T10:57:34.844Z,9.15
2023-09-29T11:00:03.160Z,12.02
2023-09-29T11:02:34.823Z,9.93
2023-09-29T11:05:06.342Z,7.32
2023-09-29T11:07:53.223Z,7.55
2023-09-29T11:10:21.002Z,6.47
2023-09-29T11:12:49.576Z,11.23
2023-09-29T11:15:18.693Z,7.50
2023-09-29T11:17:48.076Z,8.18
2023-09-29T11:20:29.174Z,6.30
2023-09-29T11:23:01.197Z,5.68
2023-09-29T11:25:28.538Z,6.97
2023-09-29T11:27:56.693Z,7.57
2023-09-29T11:30:26.546Z,6.18
2023-09-29T11:32:54.408Z,8.30
2023-09-29T11:35:23.080Z,8.02
2023-09-29T11:37:51.045Z,7.60
2023-09-29T11:40:18.512Z,9.70
2023-09-29T11:42:46.825Z,5.75
2023-09-29T11:45:14.141Z,4.90
2023-09-29T11:47:42.936Z,7.47
2023-09-29T11:50:11.833Z,6.72
2023-09-29T11:52:43.660Z,10.93
2023-09-29T11:55:15.181Z,8.10
2023-09-29T11:57:42.521Z,8.87
2023-09-29T12:00:12.086Z,8.20
2023-09-29T12:02:40.739Z,5.07
2023-09-29T12:05:10.731Z,6.05
2023-09-29T12:07:38.229Z,4.03
2023-09-29T12:10:05.892Z,4.18
2023-09-29T12:12:33.977Z,7.40
2023-09-29T12:15:01.366Z,7.72
2023-09-29T12:17:29.729Z,7.88
2023-09-29T12:19:57.417Z,6.13
2023-09-29T12:22:27.922Z,6.82
2023-09-29T12:24:55.233Z,5.25
2023-09-29T12:27:22.352Z,8.85
2023-09-29T12:29:51.510Z,6.28
2023-09-29T12:32:25.436Z,7.72
2023-09-29T12:34:52.971Z,6.32
2023-09-29T12:37:21.064Z,5.30
2023-09-29T12:39:50.991Z,8.32
2023-09-29T12:42:18.573Z,7.22
2023-09-29T12:44:48.232Z,7.30
2023-09-29T12:47:15.896Z,8.93
2023-09-29T12:49:44.517Z,6.35
2023-09-29T12:52:11.714Z,5.47
2023-09-29T12:54:40.828Z,6.47
2023-09-29T12:57:08.379Z,5.30
2023-09-29T12:59:39.010Z,7.15
2023-09-29T13:02:10.754Z,6.60
2023-09-29T13:04:37.893Z,5.65
2023-09-29T13:07:10.374Z,6.72
2023-09-29T13:09:38.788Z,4.15
2023-09-29T13:12:08.457Z,7.20
2023-09-29T13:14:42.505Z,7.75
2023-09-29T13:17:10.584Z,5.28
2023-09-29T13:19:37.835Z,4.85
2023-09-29T13:22:04.927Z,7.63
2023-09-29T13:24:32.281Z,4.15
2023-09-29T13:26:59.419Z,7.38
2023-09-29T13:29:27.126Z,3.50
2023-09-29T13:31:56.526Z,7.68
2023-09-29T13:34:23.898Z,11.18
2023-09-29T13:36:52.578Z,6.65
2023-09-29T13:39:19.687Z,4.65
2023-09-29T13:41:46.751Z,6.50
2023-09-29T13:44:14.120Z,8.48
2023-09-29T13:46:56.266Z,12.30
2023-09-29T13:49:23.707Z,12.98
2023-09-29T13:51:51.004Z,18.30
2023-09-29T13:54:18.337Z,18.50
2023-09-29T13:56:46.702Z,23.15
2023-09-29T13:59:13.752Z,17.05
2023-09-29T14:01:41.159Z,20.77
2023-09-29T14:04:09.274Z,21.15
2023-09-29T14:06:36.709Z,14.18
2023-09-29T14:09:16.138Z,20.95
2023-09-29T14:11:44.510Z,17.98
2023-09-29T14:14:11.964Z,23.33
2023-09-29T14:16:39.282Z,21.15
2023-09-29T14:19:06.365Z,20.42
2023-09-29T14:21:33.498Z,23.85
2023-09-29T14:24:01.034Z,24.60
2023-09-29T14:26:31.369Z,25.20
2023-09-29T14:28:59.139Z,21.60
2023-09-29T14:31:27.913Z,25.10
2023-09-29T14:33:55.398Z,22.88
2023-09-29T14:36:23.493Z,24.17
2023-09-29T14:38:50.900Z,21.27
2023-09-29T14:41:18.298Z,26.10
2023-09-29T14:43:46.884Z,21.77
2023-09-29T14:46:17.624Z,20.80
2023-09-29T14:48:45.170Z,24.73
2023-09-29T14:51:12.435Z,21.27
2023-09-29T14:53:40.198Z,24.90
2023-09-29T14:56:08.808Z,24.80
2023-09-29T14:58:36.272Z,21.27
2023-09-29T15:01:05.117Z,24.80
2023-09-29T15:03:33.130Z,19.20
2023-09-29T15:06:01.722Z,18.58
2023-09-29T15:08:35.810Z,22.65
2023-09-29T15:11:04.209Z,19.23
2023-09-29T15:13:31.524Z,22.35
2023-09-29T15:15:59.432Z,20.85
2023-09-29T15:18:26.652Z,22.95
2023-09-29T15:20:55.637Z,21.45
2023-09-29T15:23:23.109Z,21.05
2023-09-29T15:25:55.954Z,22.83
2023-09-29T15:28:23.185Z,23.92
2023-09-29T15:30:50.615Z,28.55
2023-09-29T15:33:17.817Z,27.13
2023-09-29T15:35:51.263Z,26.10
2023-09-29T15:38:19.176Z,25.55
2023-09-29T15:40:46.507Z,26.90
2023-09-29T15:43:14.360Z,27.98
2023-09-29T15:45:42.776Z,28.65
2023-09-29T15:48:11.398Z,27.48
2023-09-29T15:50:39.401Z,32.28
2023-09-29T15:53:06.486Z,34.45
2023-09-29T15:55:34.395Z,29.67
2023-09-29T15:58:03.058Z,31.75
2023-09-29T16:00:30.477Z,33.80
2023-09-29T16:02:58.197Z,36.50
2023-09-29T16:05:25.605Z,35.45
2023-09-29T16:07:52.842Z,33.85
2023-09-29T16:10:20.448Z,33.78
2023-09-29T16:12:48.062Z,30.40
2023-09-29T16:15:15.109Z,31.77
2023-09-29T16:17:44.461Z,35.60
2023-09-29T16:20:12.630Z,36.13
2023-09-29T16:22:39.905Z,33.75
2023-09-29T16:25:07.580Z,31.33
2023-09-29T16:27:34.698Z,32.15
2023-09-29T16:30:02.042Z,35.90
2023-09-29T16:32:32.296Z,30.73
2023-09-29T16:35:03.896Z,32.88
2023-09-29T16:37:35.197Z,34.10
2023-09-29T16:40:11.821Z,34.05
2023-09-29T16:42:46.921Z,30.23
2023-09-29T16:45:15.989Z,32.78
2023-09-29T16:47:45.291Z,35.10
2023-09-29T16:50:12.816Z,30.88
2023-09-29T16:52:40.248Z,34.53
2023-09-29T16:55:07.742Z,32.72
2023-09-29T16:57:36.064Z,36.33
2023-09-29T17:00:04.972Z,31.20
2023-09-29T17:02:32.675Z,47.63
2023-09-29T17:05:01.709Z,40.08
2023-09-29T17:07:31.063Z,42.13
2023-09-29T17:09:58.412Z,42.03
2023-09-29T17:12:25.837Z,44.72
2023-09-29T17:14:54.188Z,44.33
2023-09-29T17:17:22.286Z,42.90
2023-09-29T17:19:51.452Z,43.25
2023-09-29T17:22:19.126Z,47.63
2023-09-29T17:24:46.450Z,50.22
2023-09-29T17:27:14.614Z,46.80
2023-09-29T17:29:41.720Z,52.85
2023-09-29T17:32:10.564Z,50.28
2023-09-29T17:34:40.049Z,53.22
2023-09-29T17:37:07.213Z,49.40
2023-09-29T17:39:34.663Z,50.65
2023-09-29T17:42:02.488Z,42.60
2023-09-29T17:44:30.811Z,49.10
2023-09-29T17:46:58.182Z,44.85
2023-09-29T17:49:25.539Z,51.00
2023-09-29T17:51:52.680Z,53.53
2023-09-29T17:54:20.083Z,48.50
2023-09-29T17:56:47.865Z,62.17
2023-09-29T17:59:16.093Z,50.83
2023-09-29T18:01:43.209Z,50.28
2023-09-29T18:04:11.566Z,60.47
2023-09-29T18:06:38.832Z,53.08
2023-09-29T18:09:06.856Z,53.28
2023-09-29T18:11:36.223Z,55.80
2023-09-29T18:14:03.648Z,50.90
2023-09-29T18:16:31.297Z,54.08
2023-09-29T18:18:58.818Z,50.30
2023-09-29T18:21:28.586Z,50.33
2023-09-29T18:23:57.123Z,51.05
2023-09-29T18:26:24.160Z,47.45
2023-09-29T18:28:51.554Z,49.42
2023-09-29T18:31:19.951Z,52.72
2023-09-29T18:33:47.048Z,50.25
2023-09-29T18:36:14.582Z,51.88
2023-09-29T18:38:42.199Z,49.35
2023-09-29T18:41:11.711Z,48.78
2023-09-29T18:43:38.672Z,48.80
2023-09-29T18:46:05.582Z,52.20
2023-09-29T18:48:33.231Z,55.22
2023-09-29T18:51:05.723Z,51.03
2023-09-29T18:56:00.648Z,58.47
2023-09-29T18:58:28.426Z,48.50
2023-09-29T19:00:55.652Z,51.58
2023-09-29T19:03:23.341Z,39.47
2023-09-29T19:05:50.888Z,40.67
2023-09-29T19:08:20.074Z,47.03
2023-09-29T19:10:47.364Z,40.25
2023-09-29T19:13:14.884Z,45.63
2023-09-29T19:15:44.344Z,41.72
2023-09-29T19:18:11.792Z,41.97
2023-09-29T19:20:39.298Z,40.55
2023-09-29T19:23:06.665Z,41.30
2023-09-29T19:25:34.508Z,39.13
2023-09-29T19:28:02.197Z,35.92
2023-09-29T19:30:29.983Z,36.40
2023-09-29T19:32:58.267Z,33.42
2023-09-29T19:35:27.583Z,36.42
2023-09-29T19:37:55.667Z,34.25
2023-09-29T19:40:23.167Z,36.42
2023-09-29T19:42:50.223Z,36.53
2023-09-29T19:45:17.348Z,32.90
2023-09-29T19:47:44.957Z,29.92
2023-09-29T19:50:13.436Z,31.42
2023-09-29T19:52:42.003Z,31.92
2023-09-29T19:55:10.574Z,31.55
2023-09-29T19:57:38.359Z,31.20
2023-09-29T20:00:06.852Z,39.10
2023-09-29T20:02:39.727Z,39.50
2023-09-29T20:05:07.806Z,42.58
2023-09-29T20:07:36.310Z,38.38
2023-09-29T20:10:03.659Z,38.55
2023-09-29T20:12:30.730Z,33.67
2023-09-29T20:14:57.773Z,30.30
2023-09-29T20:17:25.817Z,32.10
2023-09-29T20:19:53.141Z,27.67
2023-09-29T20:22:21.674Z,27.02
2023-09-29T20:24:49.428Z,26.20
2023-09-29T20:27:17.181Z,24.90
2023-09-29T20:29:46.123Z,23.05
2023-09-29T20:32:13.865Z,18.67
2023-09-29T20:34:41.229Z,17.98
2023-09-29T20:37:09.045Z,18.05
2023-09-29T20:39:36.318Z,17.52
2023-09-29T20:42:04.660Z,23.33
2023-09-29T20:44:34.490Z,20.48
2023-09-29T20:47:01.496Z,24.55
2023-09-29T20:49:29.294Z,22.25
2023-09-29T20:51:56.387Z,16.90
2023-09-29T20:54:24.221Z,21.00
2023-09-29T20:56:51.223Z,17.52
2023-09-29T20:59:18.523Z,18.88
2023-09-29T21:01:45.810Z,18.60
2023-09-29T21:04:14.998Z,13.48
2023-09-29T21:06:44.348Z,17.67
2023-09-29T21:09:11.517Z,16.60
2023-09-29T21:11:38.769Z,15.13
2023-09-29T21:14:08.048Z,13.63
2023-09-29T21:16:36.031Z,16.02
2023-09-29T21:19:03.782Z,13.68
2023-09-29T21:21:30.925Z,17.27
2023-09-29T21:23:59.724Z,18.95
2023-09-29T21:26:27.313Z,14.77
2023-09-29T21:28:54.316Z,21.10
2023-09-29T21:31:28.100Z,12.85
2023-09-29T21:33:58.754Z,18.40
2023-09-29T21:36:26.516Z,15.20
2023-09-29T21:38:54.126Z,15.77
2023-09-29T21:41:21.293Z,13.82
2023-09-29T21:43:48.990Z,15.27
2023-09-29T21:46:15.994Z,14.95
2023-09-29T21:48:43.338Z,13.50
2023-09-29T21:51:10.801Z,13.43
2023-09-29T21:53:38.115Z,10.82
2023-09-29T21:56:06.317Z,14.05
2023-09-29T21:58:33.330Z,14.38
2023-09-29T22:01:00.665Z,12.40
2023-09-29T22:03:27.786Z,12.15
2023-09-29T22:05:57.500Z,13.18
2023-09-29T22:08:25.299Z,11.95
2023-09-29T22:10:52.888Z,11.52
2023-09-29T22:13:24.026Z,12.43
2023-09-29T22:15:52.767Z,13.45
2023-09-29T22:18:20.469Z,16.38
2023-09-29T22:20:48.130Z,15.68
2023-09-29T22:23:18.206Z,13.13
2023-09-29T22:25:45.771Z,15.88
2023-09-29T22:28:12.986Z,13.30
2023-09-29T22:30:40.370Z,12.90
2023-09-29T22:33:08.305Z,17.80
2023-09-29T22:35:37.478Z,15.18
2023-09-29T22:38:08.793Z,17.98
2023-09-29T22:40:35.818Z,18.90
2023-09-29T22:43:03.608Z,13.50
2023-09-29T22:45:30.997Z,13.77
2023-09-29T22:47:58.950Z,16.30
2023-09-29T22:50:27.966Z,16.20
2023-09-29T22:52:55.076Z,14.00
2023-09-29T22:55:24.189Z,12.73
2023-09-29T22:57:51.318Z,14.98
2023-09-29T23:00:18.999Z,13.07
2023-09-29T23:02:46.523Z,14.40
2023-09-29T23:05:14.139Z,12.88
2023-09-29T23:07:42.087Z,14.02
2023-09-29T23:10:12.328Z,14.43
2023-09-29T23:12:41.842Z,9.70
2023-09-29T23:15:10.316Z,14.77
2023-09-29T23:17:37.978Z,15.73
2023-09-29T23:20:11.864Z,12.85
2023-09-29T23:22:40.154Z,13.30
2023-09-29T23:25:09.233Z,11.40
2023-09-29T23:27:36.584Z,11.50
2023-09-29T23:30:05.647Z,11.10
2023-09-29T23:32:33.593Z,11.32
2023-09-29T23:35:00.981Z,15.65
2023-09-29T23:37:28.990Z,15.75
2023-09-29T23:39:56.391Z,12.75
2023-09-29T23:42:23.778Z,13.50
2023-09-29T23:44:51.055Z,12.00
2023-09-29T23:47:18.362Z,11.73
2023-09-29T23:49:45.691Z,13.57
2023-09-29T23:52:12.829Z,12.18
2023-09-29T23:54:39.983Z,13.77
2023-09-29T23:57:07.022Z,11.32
2023-09-29T23:59:34.329Z,13.00
